Time;durP1;ratioP1;P1;durP2;ratioP2;P2;SDS_P1;SDS_P2;PMS_P1;PMS_P2;Temp;Humidity;BMP_temperature;BMP_pressure;BME280_temperature;BME280_humidity;BME280_pressure;Samples;Min_cycle;Max_cycle;Signal;HPM_P1;HPM_P2
2022/01/17 00:04:11;;;;;;;2.85;2.50;;;;;;;-5.37;89.97;98318.66;5076259;28;21065;-72
2022/01/17 00:06:37;;;;;;;3.17;1.70;;;;;;;-5.37;89.61;98313.56;5082313;28;20102;-72
2022/01/17 00:09:03;;;;;;;3.60;2.45;;;;;;;-5.34;89.53;98315.22;5074025;28;20123;-72
2022/01/17 00:11:29;;;;;;;2.85;2.25;;;;;;;-5.36;89.44;98307.59;5089013;28;20060;-73
2022/01/17 00:13:57;;;;;;;6.15;2.53;;;;;;;-5.28;89.58;98303.25;5087821;28;20090;-72
2022/01/17 00:16:38;;;;;;;3.10;2.20;;;;;;;-5.35;89.54;98296.59;5090051;28;20110;-73
2022/01/17 00:19:28;;;;;;;2.90;2.42;;;;;;;-5.32;89.45;98294.00;5089291;28;20590;-75
2022/01/17 00:21:51;;;;;;;2.55;1.88;;;;;;;-5.28;88.84;98279.53;5088734;28;20074;-73
2022/01/17 00:24:18;;;;;;;4.75;2.20;;;;;;;-5.23;89.29;98294.72;5105892;28;20125;-73
2022/01/17 00:26:47;;;;;;;8.60;2.88;;;;;;;-5.11;88.93;98281.78;5088503;28;20062;-74
2022/01/17 00:29:13;;;;;;;2.60;2.00;;;;;;;-5.13;89.13;98273.31;5088901;28;20052;-73
2022/01/17 00:31:39;;;;;;;2.83;2.28;;;;;;;-5.14;88.66;98259.78;5089982;28;20592;-73
2022/01/17 00:34:07;;;;;;;2.60;1.95;;;;;;;-5.11;88.47;98256.34;5089866;28;20059;-73
2022/01/17 00:36:33;;;;;;;8.50;3.35;;;;;;;-5.10;88.51;98252.91;5088750;28;20094;-74
2022/01/17 00:38:59;;;;;;;6.25;2.40;;;;;;;-5.13;88.15;98251.28;5088734;28;20276;-73
2022/01/17 00:41:25;;;;;;;3.38;2.78;;;;;;;-5.10;87.97;98235.94;5086711;28;20538;-74
2022/01/17 00:43:51;;;;;;;3.75;2.28;;;;;;;-5.02;88.25;98226.50;5088131;28;20423;-74
2022/01/17 00:46:17;;;;;;;2.42;2.22;;;;;;;-4.99;87.61;98230.66;5079670;28;20044;-74
2022/01/17 00:48:45;;;;;;;2.85;2.10;;;;;;;-5.05;88.17;98220.63;5069852;28;20055;-73
2022/01/17 00:51:12;;;;;;;4.85;2.97;;;;;;;-4.98;88.20;98212.84;5089643;28;20060;-73
2022/01/17 00:53:38;;;;;;;3.08;2.55;;;;;;;-4.94;87.58;98199.19;5089687;28;20643;-73
2022/01/17 00:56:05;;;;;;;3.50;2.60;;;;;;;-4.79;87.39;98192.97;5089515;28;20113;-72
2022/01/17 00:58:31;;;;;;;3.28;2.50;;;;;;;-4.76;87.17;98180.16;5078299;28;20052;-74
2022/01/17 01:00:57;;;;;;;3.17;2.33;;;;;;;-4.69;87.04;98174.09;5055204;28;20494;-73
2022/01/17 01:03:23;;;;;;;6.15;2.63;;;;;;;-4.68;86.83;98163.03;5088545;28;20048;-73
2022/01/17 01:05:49;;;;;;;3.42;2.08;;;;;;;-4.71;87.06;98155.44;5087926;28;20052;-73
2022/01/17 01:08:16;;;;;;;3.03;2.63;;;;;;;-4.67;86.93;98148.59;5088486;28;20040;-72
2022/01/17 01:10:42;;;;;;;1.63;1.52;;;;;;;-4.58;86.49;98156.84;5088186;28;20462;-73
2022/01/17 01:13:09;;;;;;;2.47;1.73;;;;;;;-4.58;86.57;98145.88;5080692;28;20048;-73
2022/01/17 01:18:12;;;;;;;2.58;2.00;;;;;;;-4.61;86.18;98134.03;5067937;28;20072;-73
2022/01/17 01:28:33;;;;;;;3.05;2.13;;;;;;;-4.69;86.35;98118.09;5053992;28;20094;-72
2022/01/17 01:31:03;;;;;;;3.08;2.30;;;;;;;-4.67;85.91;98108.72;5034183;28;20049;-73
2022/01/17 01:33:33;;;;;;;1.95;1.55;;;;;;;-4.67;86.06;98111.25;5051957;28;20095;-72
2022/01/17 01:36:04;;;;;;;3.72;2.75;;;;;;;-4.70;86.04;98097.75;5051772;28;20447;-74
2022/01/17 01:38:31;;;;;;;4.95;2.33;;;;;;;-4.68;86.16;98101.97;5067946;28;20424;-73
2022/01/17 01:41:00;;;;;;;6.03;2.53;;;;;;;-4.68;85.88;98101.97;5067670;28;20475;-73
2022/01/17 01:43:26;;;;;;;2.70;2.20;;;;;;;-4.64;85.74;98092.53;5067925;28;20104;-73
2022/01/17 01:45:59;;;;;;;4.07;1.98;;;;;;;-4.68;85.21;98071.44;5067425;28;20136;-72
2022/01/17 01:48:25;;;;;;;3.58;3.10;;;;;;;-4.58;84.98;98072.06;5069278;28;20049;-73
2022/01/17 01:50:51;;;;;;;2.15;1.95;;;;;;;-4.60;84.69;98067.00;5034325;28;20052;-73
2022/01/17 01:53:18;;;;;;;3.60;2.05;;;;;;;-4.63;84.93;98067.06;5067743;28;20045;-73
2022/01/17 01:55:44;;;;;;;3.40;2.40;;;;;;;-4.64;85.30;98075.56;5069960;28;20458;-73
2022/01/17 01:58:10;;;;;;;3.75;2.10;;;;;;;-4.61;84.99;98072.13;5072399;28;20121;-72
2022/01/17 02:00:36;;;;;;;4.97;2.25;;;;;;;-4.60;84.29;98067.00;5072285;28;20369;-73
2022/01/17 02:03:04;;;;;;;4.13;2.03;;;;;;;-4.57;84.50;98044.00;5072321;28;20052;-72
2022/01/17 02:05:30;;;;;;;2.00;1.77;;;;;;;-4.53;84.17;98062.59;5072365;28;20052;-73
2022/01/17 02:07:56;;;;;;;6.35;2.05;;;;;;;-4.50;83.89;98062.50;5071112;28;20512;-73
2022/01/17 02:10:24;;;;;;;3.33;2.47;;;;;;;-4.52;83.74;98046.47;5073027;28;20055;-72
2022/01/17 02:12:50;;;;;;;4.38;2.47;;;;;;;-4.56;83.79;98042.31;5072311;28;20538;-72
2022/01/17 02:15:16;;;;;;;2.33;2.20;;;;;;;-4.55;84.02;98033.81;5072407;28;20044;-72
2022/01/17 02:17:53;;;;;;;1.83;1.73;;;;;;;-4.52;83.58;98014.22;5071110;28;20044;-73
2022/01/17 02:20:22;;;;;;;2.45;2.10;;;;;;;-4.52;83.62;98003.19;5072322;28;20179;-72
2022/01/17 02:22:51;;;;;;;3.30;2.13;;;;;;;-4.48;83.44;98003.06;5070785;28;20044;-74
2022/01/17 02:25:17;;;;;;;3.90;2.10;;;;;;;-4.50;83.50;98002.25;5072212;28;20071;-72
2022/01/17 02:27:44;;;;;;;5.25;2.33;;;;;;;-4.48;83.40;97997.97;5072012;28;20048;-73
2022/01/17 02:30:12;;;;;;;3.75;1.90;;;;;;;-4.53;83.40;97981.97;5072130;28;20044;-73
2022/01/17 02:32:39;;;;;;;4.50;2.00;;;;;;;-4.47;83.37;97978.44;5037183;28;20056;-74
2022/01/17 02:35:18;;;;;;;3.03;2.30;;;;;;;-4.47;83.66;97983.53;5070744;28;20512;-75
2022/01/17 02:37:44;;;;;;;2.00;1.75;;;;;;;-4.46;83.22;97965.69;5054127;28;20524;-72
2022/01/17 02:40:11;;;;;;;8.48;2.55;;;;;;;-4.46;83.31;97952.97;5071722;28;20135;-71
2022/01/17 02:42:39;;;;;;;3.42;1.80;;;;;;;-4.48;83.47;97946.25;5053928;28;20057;-73
2022/01/17 02:47:54;;;;;;;4.05;2.22;;;;;;;-4.50;83.53;97920.81;5071520;28;20075;-73
2022/01/17 02:50:19;;;;;;;1.85;1.48;;;;;;;-4.50;83.46;97910.63;5071757;28;20051;-72
2022/01/17 02:52:45;;;;;;;3.38;2.33;;;;;;;-4.47;83.35;97914.78;5071411;28;20420;-72
2022/01/17 02:55:11;;;;;;;3.25;2.38;;;;;;;-4.51;83.48;97906.41;5071262;28;20076;-73
2022/01/17 02:57:37;;;;;;;1.67;1.58;;;;;;;-4.53;83.36;97900.53;5071648;28;20060;-73
2022/01/17 03:00:06;;;;;;;2.83;2.50;;;;;;;-4.55;83.66;97897.22;5070207;28;20052;-72
2022/01/17 03:02:35;;;;;;;2.88;2.65;;;;;;;-4.53;83.79;97890.34;5070026;28;20109;-72
2022/01/17 03:05:01;;;;;;;5.97;3.58;;;;;;;-4.55;83.63;97889.56;5036868;28;20044;-72
2022/01/17 03:07:28;;;;;;;1.95;1.85;;;;;;;-4.59;83.68;97887.13;5070375;28;20076;-72
2022/01/17 03:10:02;;;;;;;4.30;2.85;;;;;;;-4.64;83.79;97889.78;5071136;28;20075;-73
2022/01/17 03:12:30;;;;;;;2.45;2.20;;;;;;;-4.66;84.07;97893.25;5070130;28;20060;-72
2022/01/17 03:14:56;;;;;;;8.38;2.75;;;;;;;-4.65;84.08;97882.22;5070022;28;20094;-74
2022/01/17 03:17:22;;;;;;;3.33;2.50;;;;;;;-4.67;83.86;97876.31;5071137;28;20063;-73
2022/01/17 03:19:48;;;;;;;2.92;2.60;;;;;;;-4.71;83.95;97851.84;5071206;28;20055;-74
2022/01/17 03:22:14;;;;;;;1.90;1.73;;;;;;;-4.70;83.82;97867.06;5052795;28;20060;-73
2022/01/17 03:24:43;;;;;;;2.28;1.95;;;;;;;-4.70;83.81;97869.59;5071115;28;20167;-74
2022/01/17 03:27:09;;;;;;;1.95;1.85;;;;;;;-4.71;83.80;97869.66;5070688;28;20229;-74
2022/01/17 03:29:35;;;;;;;3.47;2.15;;;;;;;-4.74;83.76;97850.19;5071119;28;20467;-74
2022/01/17 03:32:01;;;;;;;5.40;2.40;;;;;;;-4.65;83.51;97862.69;5036247;28;20059;-73
2022/01/17 03:34:27;;;;;;;7.97;2.50;;;;;;;-4.64;83.26;97846.53;5070980;28;20075;-73
2022/01/17 03:36:54;;;;;;;3.03;1.92;;;;;;;-4.59;83.00;97859.97;5070565;28;20110;-73
2022/01/17 03:39:22;;;;;;;2.67;2.17;;;;;;;-4.64;83.21;97849.06;5079116;28;20045;-73
2022/01/17 03:41:48;;;;;;;1.70;1.60;;;;;;;-4.59;83.31;97847.25;5080922;28;20147;-72
2022/01/17 03:44:14;;;;;;;3.70;1.90;;;;;;;-4.56;83.04;97836.16;5089222;28;20040;-73
2022/01/17 03:46:41;;;;;;;1.85;1.75;;;;;;;-4.49;82.67;97833.41;5090522;28;20059;-73
2022/01/17 03:49:09;;;;;;;3.58;2.53;;;;;;;-4.48;82.57;97837.59;5078996;28;20094;-73
2022/01/17 03:51:38;;;;;;;1.88;1.67;;;;;;;-4.47;82.30;97824.00;5070631;28;20079;-73
2022/01/17 03:54:06;;;;;;;3.08;2.85;;;;;;;-4.47;82.47;97824.00;5072824;28;20043;-73
2022/01/17 03:56:32;;;;;;;5.13;2.50;;;;;;;-4.42;81.99;97821.34;5090626;28;20082;-74
2022/01/17 03:58:59;;;;;;;3.92;1.88;;;;;;;-4.44;82.51;97811.19;5084019;28;20040;-75
2022/01/17 04:01:25;;;;;;;4.72;2.78;;;;;;;-4.38;81.77;97807.63;5075003;28;20423;-74
2022/01/17 04:03:51;;;;;;;5.60;2.63;;;;;;;-4.39;81.89;97809.38;5077274;28;20051;-72
2022/01/17 04:06:18;;;;;;;3.10;2.25;;;;;;;-4.38;81.69;97793.19;5082441;28;20056;-73
2022/01/17 04:08:44;;;;;;;5.13;2.90;;;;;;;-4.35;81.67;97788.00;5084529;28;20044;-73
2022/01/17 04:11:10;;;;;;;3.03;2.30;;;;;;;-4.36;81.50;97791.44;5078206;28;20514;-73
2022/01/17 04:13:36;;;;;;;3.15;2.35;;;;;;;-4.35;81.59;97777.81;5050213;28;20051;-73
2022/01/17 04:16:02;;;;;;;2.13;2.03;;;;;;;-4.30;81.33;97778.53;5085017;28;20036;-73
2022/01/17 04:18:29;;;;;;;2.22;2.03;;;;;;;-4.28;81.06;97781.03;5068581;28;20139;-72
2022/01/17 04:20:57;;;;;;;1.63;1.52;;;;;;;-4.29;81.19;97770.00;5081540;28;20455;-73
2022/01/17 04:23:23;;;;;;;2.50;2.28;;;;;;;-4.23;80.78;97764.75;5081838;28;20110;-72
2022/01/17 04:25:49;;;;;;;3.47;2.17;;;;;;;-4.21;80.00;97744.31;5082633;28;20515;-72
2022/01/17 04:28:15;;;;;;;1.85;1.75;;;;;;;-4.17;80.13;97757.78;5084057;28;20047;-73
2022/01/17 04:30:42;;;;;;;5.63;2.78;;;;;;;-4.22;80.02;97748.56;5083882;28;20048;-72
2022/01/17 04:33:08;;;;;;;2.97;2.40;;;;;;;-4.21;80.24;97745.16;5085198;28;20051;-72
2022/01/17 04:35:35;;;;;;;2.10;2.00;;;;;;;-4.21;80.67;97732.44;5086413;28;20500;-73
2022/01/17 04:38:04;;;;;;;2.55;2.17;;;;;;;-4.14;79.81;97732.22;5052679;28;20044;-73
2022/01/17 04:40:35;;;;;;;3.70;2.35;;;;;;;-4.14;79.59;97719.50;5088164;28;20147;-73
2022/01/17 04:43:03;;;;;;;;;;;;;;;-4.12;79.64;97723.66;5088709;28;20082;-73
2022/01/17 04:45:29;;;;;;;5.10;2.33;;;;;;;-4.08;79.28;97717.59;5089941;28;20141;-72
2022/01/17 04:47:55;;;;;;;2.67;2.47;;;;;;;-4.08;79.65;97714.22;5071807;28;20300;-72
2022/01/17 04:50:24;;;;;;;1.88;1.77;;;;;;;-4.13;79.81;97695.72;5089666;28;20060;-74
2022/01/17 04:52:50;;;;;;;4.53;2.85;;;;;;;-4.06;79.27;97698.03;5089803;28;20642;-73
2022/01/17 04:55:18;;;;;;;1.90;1.80;;;;;;;-4.02;78.86;97699.56;5105227;28;20056;-74
2022/01/17 04:57:45;;;;;;;4.57;2.75;;;;;;;-4.02;79.17;97691.09;5089661;28;20040;-74
2022/01/17 05:00:12;;;;;;;2.70;2.50;;;;;;;-4.03;78.99;97687.75;5089644;28;20055;-73
2022/01/17 05:02:38;;;;;;;4.75;3.40;;;;;;;-4.04;79.05;97677.59;5088223;28;20070;-73
2022/01/17 05:05:04;;;;;;;4.50;2.67;;;;;;;-3.98;78.56;97662.94;5087960;28;20067;-73
2022/01/17 05:07:32;;;;;;;7.47;2.83;;;;;;;-4.00;78.89;97661.31;5089793;28;20040;-72
2022/01/17 05:09:59;;;;;;;2.83;2.10;;;;;;;-4.00;79.06;97651.97;5088082;28;20052;-73
2022/01/17 05:12:25;;;;;;;3.22;2.92;;;;;;;-3.98;79.09;97644.25;5089323;28;20055;-72
2022/01/17 05:14:53;;;;;;;2.45;2.00;;;;;;;-3.99;79.26;97632.44;5088436;28;20087;-73
2022/01/17 05:17:45;;;;;;;2.35;2.17;;;;;;;-4.02;79.81;97632.50;5104958;28;20044;-72
2022/01/17 05:20:07;;;;;;;5.03;3.05;;;;;;;-4.06;81.12;97630.97;5089876;28;20044;-73
2022/01/17 05:22:34;;;;;;;2.90;2.25;;;;;;;-4.17;83.03;97620.28;5088221;28;20427;-72
2022/01/17 05:25:00;;;;;;;4.57;2.70;;;;;;;-4.20;83.90;97631.41;5088040;28;20250;-72
2022/01/17 05:27:26;;;;;;;4.60;2.53;;;;;;;-4.24;84.42;97617.94;5088232;28;20063;-73
2022/01/17 05:29:53;;;;;;;4.75;2.58;;;;;;;-4.28;85.65;97621.47;5095914;28;20043;-73
2022/01/17 05:32:20;;;;;;;2.50;2.22;;;;;;;-4.27;86.58;97627.38;5102633;28;20613;-73
2022/01/17 05:34:47;;;;;;;3.80;2.63;;;;;;;-4.33;86.39;97618.25;5104166;28;20055;-73
2022/01/17 05:37:16;;;;;;;3.75;3.17;;;;;;;-4.33;87.23;97617.41;5083786;28;20052;-73
2022/01/17 05:39:45;;;;;;;2.75;2.55;;;;;;;-4.40;87.68;97615.94;5095800;28;20036;-73
2022/01/17 05:42:17;;;;;;;3.63;3.30;;;;;;;-4.44;88.45;97599.91;5075354;28;20538;-73
2022/01/17 05:44:46;;;;;;;4.65;2.72;;;;;;;-4.44;88.43;97610.09;5093555;28;20093;-73
2022/01/17 05:47:12;;;;;;;5.22;3.10;;;;;;;-4.49;88.68;97604.34;5093062;28;20507;-73
2022/01/17 05:49:38;;;;;;;5.30;3.60;;;;;;;-4.59;88.97;97602.94;5093250;28;20048;-73
2022/01/17 05:52:05;;;;;;;6.03;3.88;;;;;;;-4.64;88.95;97594.63;5108218;28;20131;-73
2022/01/17 05:54:34;;;;;;;4.75;3.03;;;;;;;-4.58;88.96;97598.69;5091912;28;20519;-73
2022/01/17 05:57:00;;;;;;;6.47;4.28;;;;;;;-4.58;88.80;97591.88;5091516;28;20071;-72
2022/01/17 05:59:26;;;;;;;4.32;3.35;;;;;;;-4.57;88.91;97578.28;5093136;28;20098;-72
2022/01/17 06:01:52;;;;;;;7.68;3.78;;;;;;;-4.53;88.51;97553.56;5092775;28;20144;-72
2022/01/17 06:04:19;;;;;;;4.20;3.50;;;;;;;-4.53;88.98;97556.94;5093358;28;20036;-73
2022/01/17 06:06:45;;;;;;;4.57;3.72;;;;;;;-4.56;89.60;97538.41;5092627;28;20052;-73
2022/01/17 06:09:11;;;;;;;6.00;4.90;;;;;;;-4.60;89.26;97512.22;5092693;28;20048;-73
2022/01/17 06:11:38;;;;;;;5.22;3.63;;;;;;;-4.58;89.66;97507.09;5091355;28;20058;-73
2022/01/17 06:14:04;;;;;;;4.28;3.88;;;;;;;-4.59;89.11;97495.25;5092523;28;20066;-73
2022/01/17 06:16:31;;;;;;;5.28;4.03;;;;;;;-4.59;89.44;97488.44;5074418;28;20188;-72
2022/01/17 06:18:57;;;;;;;6.90;4.53;;;;;;;-4.61;89.75;97528.34;5093260;27;20619;-72
2022/01/17 06:21:25;;;;;;;7.07;4.47;;;;;;;-4.62;90.12;97549.63;5092130;28;20044;-72
2022/01/17 06:23:52;;;;;;;10.60;5.20;;;;;;;-4.61;90.61;97556.34;5091411;28;20118;-72
2022/01/17 06:26:19;;;;;;;8.05;4.68;;;;;;;-4.57;90.28;97613.91;5090844;28;20534;-73
2022/01/17 06:28:45;;;;;;;11.05;6.47;;;;;;;-4.51;89.86;97654.44;5092358;28;20130;-73
2022/01/17 06:31:11;;;;;;;18.25;8.00;;;;;;;-4.57;90.05;97654.63;5090858;28;20048;-73
2022/01/17 06:33:37;;;;;;;14.27;9.50;;;;;;;-4.51;90.30;97664.63;5090946;28;20140;-73
2022/01/17 06:36:04;;;;;;;8.43;5.10;;;;;;;-4.49;90.30;97645.06;5091981;28;20044;-74
2022/01/17 06:38:30;;;;;;;8.13;4.22;;;;;;;-4.50;90.54;97605.19;5092209;28;20101;-73
2022/01/17 06:40:56;;;;;;;7.60;5.50;;;;;;;-4.55;90.55;97565.50;5092208;28;20044;-73
2022/01/17 06:43:22;;;;;;;7.25;3.95;;;;;;;-4.59;90.87;97539.34;5090437;28;20499;-73
2022/01/17 06:45:48;;;;;;;11.30;4.43;;;;;;;-4.64;91.27;97504.72;5092186;28;20048;-73
2022/01/17 06:48:17;;;;;;;12.00;6.50;;;;;;;-4.66;91.31;97481.88;5091763;28;20055;-73
2022/01/17 06:50:43;;;;;;;15.15;7.57;;;;;;;-4.64;91.28;97484.38;5108077;28;20515;-73
2022/01/17 06:53:12;;;;;;;8.88;5.43;;;;;;;-4.66;91.51;97471.72;5090229;28;20101;-74
2022/01/17 06:55:38;;;;;;;7.82;4.50;;;;;;;-4.63;91.63;97475.84;5073637;28;20514;-73
2022/01/17 06:58:04;;;;;;;7.85;4.88;;;;;;;-4.64;91.54;97490.28;5091477;28;20070;-73
2022/01/17 07:00:30;;;;;;;7.45;4.15;;;;;;;-4.58;91.46;97499.47;5091747;28;20052;-73
2022/01/17 07:02:56;;;;;;;10.02;4.72;;;;;;;-4.56;91.11;97469.69;5091483;28;20136;-73
2022/01/17 07:05:22;;;;;;;6.72;4.88;;;;;;;-4.55;91.03;97448.47;5091340;28;20508;-72
2022/01/17 07:07:48;;;;;;;9.15;6.32;;;;;;;-4.51;91.16;97475.44;5091660;28;20051;-73
2022/01/17 07:10:15;;;;;;;9.57;3.63;;;;;;;-4.46;91.22;97489.69;5091546;28;20173;-73
2022/01/17 07:12:41;;;;;;;7.57;4.65;;;;;;;-4.38;90.61;97490.25;5091966;28;20132;-73
2022/01/17 07:15:07;;;;;;;7.47;3.75;;;;;;;-4.29;90.34;97491.69;5091229;28;20032;-73
2022/01/17 07:17:34;;;;;;;4.95;3.92;;;;;;;-4.24;90.13;97477.06;5091656;28;20051;-73
2022/01/17 07:20:00;;;;;;;6.82;4.22;;;;;;;-4.19;90.35;97461.63;5073563;28;20047;-74
2022/01/17 07:22:27;;;;;;;7.47;5.05;;;;;;;-4.15;89.90;97460.63;5091015;28;20059;-73
2022/01/17 07:24:55;;;;;;;5.03;3.92;;;;;;;-4.12;89.88;97465.63;5080874;28;20056;-73
2022/01/17 07:27:21;;;;;;;9.95;5.40;;;;;;;-4.11;89.69;97455.38;5089466;28;20139;-73
2022/01/17 07:29:47;;;;;;;6.45;4.32;;;;;;;-4.11;89.97;97429.91;5071283;28;20619;-73
2022/01/17 07:32:13;;;;;;;4.97;3.70;;;;;;;-4.04;89.80;97430.53;5069431;28;20059;-73
2022/01/17 07:34:39;;;;;;;8.50;5.20;;;;;;;-4.05;89.79;97428.84;5062657;28;20051;-73
2022/01/17 07:37:05;;;;;;;5.47;4.22;;;;;;;-4.05;89.01;97424.59;5082771;28;20044;-72
2022/01/17 07:39:31;;;;;;;6.97;3.95;;;;;;;-4.02;89.28;97439.75;5086382;28;20044;-73
2022/01/17 07:41:57;;;;;;;6.43;4.43;;;;;;;-3.98;88.51;97432.84;5074047;28;20090;-73
2022/01/17 07:44:25;;;;;;;6.32;4.22;;;;;;;-4.02;88.66;97403.28;5079780;28;20305;-73
2022/01/17 07:47:01;;;;;;;5.55;4.35;;;;;;;-3.99;88.58;97393.00;5080346;28;20090;-73
2022/01/17 07:49:28;;;;;;;8.52;4.80;;;;;;;-4.05;88.60;97380.47;5080549;28;20166;-73
2022/01/17 07:51:59;;;;;;;5.18;4.07;;;;;;;-4.04;88.89;97389.78;5079319;28;20080;-73
2022/01/17 07:54:28;;;;;;;3.15;2.95;;;;;;;-4.03;88.99;97368.53;5081856;28;20044;-73
2022/01/17 07:56:55;;;;;;;6.35;3.90;;;;;;;-4.01;88.90;97382.03;5077657;28;20044;-72
2022/01/17 07:59:21;;;;;;;8.48;4.22;;;;;;;-4.07;88.93;97365.25;5085714;28;20146;-72
2022/01/17 08:01:47;;;;;;;4.30;3.40;;;;;;;-4.02;89.68;97375.25;5079602;28;20139;-73
2022/01/17 08:04:13;;;;;;;7.70;4.85;;;;;;;-4.05;93.67;97363.47;5076883;28;20534;-72
2022/01/17 08:06:49;;;;;;;5.88;4.70;;;;;;;-3.99;91.77;97367.53;5083756;28;20055;-73
2022/01/17 08:09:19;;;;;;;4.13;3.78;;;;;;;-4.01;89.49;97362.47;5058669;28;20041;-73
2022/01/17 08:11:45;;;;;;;5.90;4.97;;;;;;;-3.88;89.32;97365.38;5083789;28;20440;-73
2022/01/17 08:14:12;;;;;;;6.07;4.32;;;;;;;-3.91;88.85;97363.78;5080286;28;20055;-74
2022/01/17 08:16:38;;;;;;;5.15;4.75;;;;;;;-3.84;89.39;97362.69;5076511;28;20595;-73
2022/01/17 08:19:04;;;;;;;9.35;5.50;;;;;;;-3.80;89.30;97363.41;5078957;28;20527;-74
2022/01/17 08:21:30;;;;;;;7.53;5.72;;;;;;;-3.78;89.31;97348.88;5078681;28;20044;-74
2022/01/17 08:24:00;;;;;;;7.22;5.75;;;;;;;-3.79;89.06;97360.78;5067129;28;20052;-73
2022/01/17 08:26:26;;;;;;;4.85;4.38;;;;;;;-3.83;89.35;97359.22;5075623;28;20048;-73
2022/01/17 08:28:55;;;;;;;8.75;5.72;;;;;;;-3.87;89.72;97337.31;5078253;28;20052;-72
2022/01/17 08:31:23;;;;;;;5.20;4.70;;;;;;;-3.87;90.04;97344.13;5078150;28;20052;-72
2022/01/17 08:33:49;;;;;;;6.70;5.00;;;;;;;-3.81;90.75;97341.34;5076108;28;20047;-72
2022/01/17 08:36:19;;;;;;;8.23;5.13;;;;;;;-3.80;90.01;97333.66;5077724;28;20155;-72
2022/01/17 08:38:47;;;;;;;7.43;4.22;;;;;;;-3.76;89.70;97319.06;5084749;28;20044;-72
2022/01/17 08:41:14;;;;;;;6.03;4.72;;;;;;;-3.72;89.43;97325.69;5084328;28;20085;-72
2022/01/17 08:43:40;;;;;;;5.90;4.72;;;;;;;-3.71;89.86;97333.28;5053497;28;20432;-72
2022/01/17 08:46:06;;;;;;;5.45;4.82;;;;;;;-3.68;89.17;97329.78;5090237;28;20040;-73
2022/01/17 08:48:32;;;;;;;13.43;7.70;;;;;;;-3.68;89.02;97327.25;5075673;28;20427;-72
2022/01/17 08:50:58;;;;;;;5.60;4.95;;;;;;;-3.67;88.81;97318.72;5077249;28;20055;-72
2022/01/17 08:53:26;;;;;;;6.65;5.35;;;;;;;-3.70;88.83;97313.75;5076162;28;20404;-72
2022/01/17 08:55:52;;;;;;;6.20;4.80;;;;;;;-3.72;88.89;97320.59;5074881;28;20108;-72
2022/01/17 08:58:18;;;;;;;6.40;5.22;;;;;;;-3.65;89.10;97332.22;5075795;28;20052;-73
2022/01/17 09:00:44;;;;;;;5.88;5.30;;;;;;;-3.67;88.24;97318.72;5074372;28;20043;-73
2022/01/17 09:03:10;;;;;;;9.73;4.70;;;;;;;-3.65;88.48;97316.09;5075542;28;20051;-72
2022/01/17 09:05:36;;;;;;;5.65;3.70;;;;;;;-3.67;87.80;97310.25;5073661;28;20139;-72
2022/01/17 09:08:03;;;;;;;7.10;4.72;;;;;;;-3.60;87.26;97316.75;5077609;28;20047;-72
2022/01/17 09:10:29;;;;;;;6.63;5.95;;;;;;;-3.61;86.79;97308.28;5083178;28;20048;-73
2022/01/17 09:12:56;;;;;;;7.65;5.82;;;;;;;-3.63;86.96;97310.03;5075535;28;20486;-72
2022/01/17 09:15:23;;;;;;;9.07;6.10;;;;;;;-3.59;87.15;97306.50;5066569;28;20049;-72
2022/01/17 09:17:50;;;;;;;6.20;5.65;;;;;;;-3.60;87.21;97292.09;5075284;28;20063;-72
2022/01/17 09:20:16;;;;;;;4.60;4.22;;;;;;;-3.56;86.87;97300.44;5082971;28;20040;-72
2022/01/17 09:22:42;;;;;;;6.97;5.03;;;;;;;-3.53;86.22;97296.03;5077325;28;20056;-72
2022/01/17 09:25:08;;;;;;;4.38;3.78;;;;;;;-3.58;86.69;97272.47;5083965;28;20032;-72
2022/01/17 09:27:35;;;;;;;6.28;5.30;;;;;;;-3.55;86.41;97271.50;5083299;28;20048;-72
2022/01/17 09:30:07;;;;;;;4.95;4.45;;;;;;;-3.55;86.33;97274.91;5075985;28;20055;-73
2022/01/17 09:32:33;;;;;;;8.82;4.95;;;;;;;-3.53;86.41;97273.09;5073570;28;20052;-72
2022/01/17 09:34:58;;;;;;;7.68;4.53;;;;;;;-3.54;86.67;97268.09;5075848;28;20043;-72
2022/01/17 09:37:25;;;;;;;6.57;5.78;;;;;;;-3.54;86.86;97263.81;5081928;28;20048;-72
2022/01/17 09:39:51;;;;;;;8.35;5.68;;;;;;;-3.54;86.93;97253.63;5075984;28;20044;-72
2022/01/17 09:42:19;;;;;;;6.95;6.25;;;;;;;-3.53;87.40;97257.00;5082549;28;20468;-72
2022/01/17 09:44:45;;;;;;;6.97;4.97;;;;;;;-3.48;87.56;97248.28;5076073;28;20101;-72
2022/01/17 09:47:13;;;;;;;7.75;6.15;;;;;;;-3.51;88.15;97248.41;5082018;28;20519;-73
2022/01/17 09:49:53;;;;;;;6.57;5.55;;;;;;;-3.55;88.11;97236.66;5078596;28;20046;-73
2022/01/17 09:54:51;;;;;;;9.65;6.55;;;;;;;-3.56;95.83;97229.06;5083371;28;20040;-72
2022/01/17 09:57:17;;;;;;;6.63;5.60;;;;;;;-3.53;97.10;97239.97;5067358;28;20087;-71
2022/01/17 09:59:43;;;;;;;9.32;7.28;;;;;;;-3.54;94.96;97228.13;5082555;28;20438;-72
2022/01/17 10:02:13;;;;;;;9.20;6.30;;;;;;;-3.47;89.51;97226.16;5082845;28;20051;-73
2022/01/17 10:04:42;;;;;;;7.82;6.30;;;;;;;-3.43;87.86;97214.91;5052173;28;20048;-72
2022/01/17 10:07:08;;;;;;;11.70;7.55;;;;;;;-3.42;87.19;97211.50;5076059;28;20420;-73
2022/01/17 10:13:08;;;;;;;9.07;6.30;;;;;;;-3.42;87.53;97222.50;5078405;28;20133;-73
2022/01/17 10:15:55;;;;;;;15.05;6.13;;;;;;;-3.40;87.90;97218.16;5079086;28;20419;-73
2022/01/17 10:18:25;;;;;;;10.10;8.02;;;;;;;-3.38;87.85;97202.81;5087460;28;20085;-73
2022/01/17 10:20:57;;;;;;;8.57;7.45;;;;;;;-3.43;88.29;97192.81;5085241;28;20059;-73
2022/01/17 10:26:26;;;;;;;11.20;9.15;;;;;;;-3.44;89.81;97193.72;5073537;28;20055;-73
2022/01/17 10:34:54;;;;;;;9.43;7.13;;;;;;;-3.38;92.83;97205.38;5079582;28;20052;-73
2022/01/17 10:36:48;;;;;;;11.93;8.10;;;;;;;-3.40;91.89;97204.59;5077212;28;20082;-74
2022/01/17 10:39:14;;;;;;;12.18;8.40;;;;;;;-3.42;91.79;97194.47;5079815;28;20394;-73
2022/01/17 10:41:41;;;;;;;13.80;7.95;;;;;;;-3.39;91.89;97185.88;5083178;28;20064;-75
2022/01/17 10:44:07;;;;;;;6.18;5.65;;;;;;;-3.38;91.46;97196.00;5077376;28;20113;-73
2022/01/17 10:46:33;;;;;;;8.07;6.63;;;;;;;-3.34;91.14;97189.88;5076945;28;20044;-73
2022/01/17 10:48:59;;;;;;;9.15;7.18;;;;;;;-3.32;90.70;97177.91;5077258;28;20143;-75
2022/01/17 10:51:32;;;;;;;6.05;5.32;;;;;;;-3.26;90.42;97162.34;5085136;28;20427;-73
2022/01/17 10:53:59;;;;;;;9.40;7.60;;;;;;;-3.29;89.98;97172.66;5077248;28;20052;-73
2022/01/17 10:56:26;;;;;;;9.55;8.05;;;;;;;-3.20;89.95;97162.06;5080841;28;20044;-72
2022/01/17 10:59:03;;;;;;;10.73;7.50;;;;;;;-3.17;89.89;97146.63;5064078;28;20047;-74
2022/01/17 11:01:36;;;;;;;15.70;10.48;;;;;;;-3.18;89.93;97152.63;5075191;28;20077;-75
2022/01/17 11:04:04;;;;;;;13.60;9.82;;;;;;;-3.13;89.92;97156.69;5095200;28;20044;-74
2022/01/17 11:06:30;;;;;;;8.90;7.85;;;;;;;-3.12;90.58;97163.44;5081877;28;20049;-74
2022/01/17 11:09:08;;;;;;;8.40;7.03;;;;;;;-3.17;91.30;97161.09;5079568;28;20054;-74
2022/01/17 11:11:40;;;;;;;12.48;9.52;;;;;;;-3.08;90.98;97159.88;5080440;28;20531;-75
2022/01/17 11:14:09;;;;;;;13.10;8.88;;;;;;;-3.07;89.85;97164.06;5085102;28;20044;-74
2022/01/17 11:16:38;;;;;;;12.63;9.43;;;;;;;-3.05;89.81;97158.03;5079583;28;20105;-75
2022/01/17 11:20:02;;;;;;;12.90;9.13;;;;;;;-3.04;89.21;97141.00;5078584;28;20143;-74
2022/01/17 11:21:51;;;;;;;12.60;8.13;;;;;;;-3.06;89.26;97135.94;5079996;28;20151;-74
2022/01/17 11:24:17;;;;;;;9.32;6.47;;;;;;;-3.01;89.52;97133.22;5070292;28;20048;-75
2022/01/17 11:26:45;;;;;;;14.23;9.10;;;;;;;-2.93;88.79;97141.31;5078895;28;20037;-73
2022/01/17 11:29:13;;;;;;;9.75;6.60;;;;;;;-3.00;88.83;97134.84;5083620;28;20072;-72
2022/01/17 11:31:38;;;;;;;9.55;8.50;;;;;;;-2.97;88.70;97137.25;5076296;28;20040;-72
2022/01/17 11:34:09;;;;;;;9.98;7.57;;;;;;;-3.01;88.72;97128.09;5083171;28;20133;-73
2022/01/17 11:36:36;;;;;;;12.05;8.23;;;;;;;-2.96;88.64;97128.72;5076130;28;20036;-73
2022/01/17 11:39:04;;;;;;;11.20;8.77;;;;;;;-2.92;88.57;97125.13;5081004;28;20538;-74
2022/01/17 11:41:34;;;;;;;13.38;10.07;;;;;;;-2.94;88.68;97121.81;5077782;28;20036;-73
2022/01/17 11:44:05;;;;;;;8.23;6.97;;;;;;;-2.92;88.74;97120.03;5075914;28;20069;-74
2022/01/17 11:46:33;;;;;;;10.68;7.68;;;;;;;-3.00;89.67;97105.06;5076995;28;20424;-73
2022/01/17 11:49:08;;;;;;;13.93;8.75;;;;;;;-2.99;89.98;97113.53;5078915;28;20158;-73
2022/01/17 11:51:45;;;;;;;14.65;8.90;;;;;;;-3.03;90.28;97100.09;5078857;28;20500;-74
2022/01/17 11:54:19;;;;;;;18.67;13.20;;;;;;;-3.02;90.08;97099.22;5087232;28;20048;-74
2022/01/17 11:56:55;;;;;;;12.38;8.75;;;;;;;-3.02;90.69;97094.09;5077000;28;20058;-73
2022/01/17 11:59:35;;;;;;;13.57;11.10;;;;;;;-3.07;90.92;97100.28;5078898;28;20539;-73
2022/01/17 12:02:21;;;;;;;14.77;9.35;;;;;;;-2.99;90.89;97098.25;5085787;28;20052;-74
2022/01/17 12:05:15;;;;;;;9.02;7.72;;;;;;;-3.03;90.61;97087.34;5075862;28;20032;-74